createdAt,value
2019-03-23T00:00:05.138Z,4.40
2019-03-23T00:02:36.378Z,4.51
2019-03-23T00:05:08.918Z,4.58
2019-03-23T00:07:40.212Z,4.63
2019-03-23T00:10:11.761Z,4.67
2019-03-23T00:12:42.865Z,4.72
2019-03-23T00:15:14.273Z,4.74
2019-03-23T00:17:45.508Z,4.77
2019-03-23T00:20:16.674Z,4.74
2019-03-23T00:22:47.937Z,4.74
2019-03-23T00:25:19.058Z,4.75
2019-03-23T00:27:50.311Z,4.74
2019-03-23T00:30:21.497Z,4.68
2019-03-23T00:32:52.667Z,4.66
2019-03-23T00:35:23.881Z,4.65
2019-03-23T00:37:55.152Z,4.67
2019-03-23T00:40:26.421Z,4.63
2019-03-23T00:42:57.696Z,4.61
2019-03-23T00:45:28.841Z,4.58
2019-03-23T00:48:00.114Z,4.54
2019-03-23T00:50:31.326Z,4.50
2019-03-23T00:53:02.671Z,4.48
2019-03-23T00:55:33.969Z,4.47
2019-03-23T00:58:05.319Z,4.42
2019-03-23T01:00:36.585Z,4.38
2019-03-23T01:03:07.742Z,4.35
2019-03-23T01:05:39.005Z,4.35
2019-03-23T01:08:10.209Z,4.32
2019-03-23T01:10:41.495Z,4.27
2019-03-23T01:13:12.619Z,4.08
2019-03-23T01:15:43.829Z,3.87
2019-03-23T01:18:15.068Z,3.82
2019-03-23T01:20:49.935Z,3.73
2019-03-23T01:23:19.357Z,3.76
2019-03-23T01:25:50.563Z,3.78
2019-03-23T01:28:21.820Z,3.78
2019-03-23T01:30:53.056Z,3.76
2019-03-23T01:33:24.154Z,3.73
2019-03-23T01:35:55.300Z,3.70
2019-03-23T01:38:26.431Z,3.71
2019-03-23T01:40:57.693Z,3.75
2019-03-23T01:43:28.906Z,3.79
2019-03-23T01:46:00.169Z,3.79
2019-03-23T01:48:31.307Z,3.82
2019-03-23T01:51:02.481Z,3.76
2019-03-23T01:53:33.727Z,3.79
2019-03-23T01:56:04.975Z,3.77
2019-03-23T01:58:36.127Z,3.76
2019-03-23T02:01:07.397Z,3.73
2019-03-23T02:03:38.691Z,3.67
2019-03-23T02:06:10.024Z,3.35
2019-03-23T02:08:41.255Z,3.38
2019-03-23T02:11:12.438Z,3.38
2019-03-23T02:13:43.733Z,3.43
2019-03-23T02:16:14.866Z,3.46
2019-03-23T02:18:46.083Z,3.44
2019-03-23T02:21:17.298Z,3.43
2019-03-23T02:23:48.546Z,3.34
2019-03-23T02:26:19.779Z,3.04
2019-03-23T02:28:50.907Z,2.82
2019-03-23T02:31:22.090Z,2.80
2019-03-23T02:33:53.286Z,2.79
2019-03-23T02:36:24.456Z,2.85
2019-03-23T02:38:55.691Z,2.94
2019-03-23T02:41:26.863Z,3.04
2019-03-23T02:43:58.085Z,3.13
2019-03-23T02:46:29.344Z,3.21
2019-03-23T02:49:00.419Z,3.18
2019-03-23T02:51:31.567Z,3.14
2019-03-23T02:54:02.819Z,3.12
2019-03-23T02:56:34.084Z,2.95
2019-03-23T02:59:05.370Z,2.84
2019-03-23T03:01:36.574Z,2.78
2019-03-23T03:04:07.776Z,2.81
2019-03-23T03:06:39.054Z,2.89
2019-03-23T03:09:10.469Z,2.98
2019-03-23T03:11:41.706Z,2.98
2019-03-23T03:14:12.804Z,2.55
2019-03-23T03:16:44.008Z,2.55
2019-03-23T03:19:15.224Z,2.56
2019-03-23T03:21:46.364Z,2.43
2019-03-23T03:24:17.608Z,2.41
2019-03-23T03:26:48.800Z,2.37
2019-03-23T03:29:20.057Z,2.40
2019-03-23T03:31:51.239Z,2.43
2019-03-23T03:34:22.370Z,2.46
2019-03-23T03:36:53.605Z,2.54
2019-03-23T03:39:24.842Z,2.60
2019-03-23T03:41:56.075Z,2.64
2019-03-23T03:44:27.380Z,2.29
2019-03-23T03:46:58.501Z,2.11
2019-03-23T03:49:29.725Z,2.12
2019-03-23T03:52:00.948Z,2.01
2019-03-23T03:54:32.162Z,1.99
2019-03-23T03:57:04.704Z,2.04
2019-03-23T03:59:35.900Z,2.09
2019-03-23T04:02:07.095Z,1.94
2019-03-23T04:04:38.353Z,1.97
2019-03-23T04:07:09.474Z,1.95
2019-03-23T04:09:40.630Z,1.92
2019-03-23T04:12:11.803Z,1.76
2019-03-23T04:14:43.068Z,1.70
2019-03-23T04:17:14.388Z,1.58
2019-03-23T04:19:45.559Z,1.57
2019-03-23T04:22:16.821Z,1.59
2019-03-23T04:24:48.056Z,1.47
2019-03-23T04:27:19.288Z,1.41
2019-03-23T04:29:50.489Z,1.45
2019-03-23T04:32:21.809Z,1.40
2019-03-23T04:34:53.034Z,1.41
2019-03-23T04:37:24.369Z,1.34
2019-03-23T04:39:55.645Z,1.17
2019-03-23T04:42:26.802Z,1.31
2019-03-23T04:44:58.036Z,1.38
2019-03-23T04:47:29.241Z,1.37
2019-03-23T04:50:00.457Z,1.35
2019-03-23T04:52:31.692Z,1.39
2019-03-23T04:55:02.920Z,1.46
2019-03-23T04:57:34.031Z,1.50
2019-03-23T05:00:06.393Z,1.63
2019-03-23T05:02:39.191Z,1.66
2019-03-23T05:05:10.920Z,1.56
2019-03-23T05:07:42.199Z,1.47
2019-03-23T05:10:13.674Z,1.44
2019-03-23T05:12:44.918Z,1.38
2019-03-23T05:15:16.147Z,1.37
2019-03-23T05:17:47.471Z,1.23
2019-03-23T05:20:31.762Z,1.14
2019-03-23T05:23:03.058Z,1.22
2019-03-23T05:25:34.316Z,1.22
2019-03-23T05:28:05.510Z,1.27
2019-03-23T05:30:36.834Z,1.20
2019-03-23T05:33:08.035Z,1.22
2019-03-23T05:35:39.154Z,1.31
2019-03-23T05:38:10.457Z,1.37
2019-03-23T05:40:41.671Z,1.39
2019-03-23T05:43:12.870Z,1.41
2019-03-23T05:45:44.105Z,1.43
2019-03-23T05:48:15.272Z,1.46
2019-03-23T05:50:46.559Z,1.58
2019-03-23T05:53:17.789Z,1.56
2019-03-23T05:55:49.051Z,1.65
2019-03-23T05:58:20.289Z,1.79
2019-03-23T06:00:51.557Z,1.85
2019-03-23T06:03:22.737Z,1.91
2019-03-23T06:05:53.886Z,2.00
2019-03-23T06:08:25.067Z,2.06
2019-03-23T06:10:56.310Z,2.12
2019-03-23T06:13:27.569Z,2.20
2019-03-23T06:15:58.894Z,2.25
2019-03-23T06:18:30.018Z,2.36
2019-03-23T06:21:01.339Z,2.34
2019-03-23T06:23:32.559Z,2.50
2019-03-23T06:26:06.364Z,2.55
2019-03-23T06:28:36.823Z,2.67
2019-03-23T06:31:08.114Z,2.78
2019-03-23T06:33:39.330Z,2.90
2019-03-23T06:36:10.520Z,2.99
2019-03-23T06:38:41.654Z,3.15
2019-03-23T06:41:12.865Z,3.27
2019-03-23T06:43:55.555Z,3.45
2019-03-23T06:46:26.799Z,3.52
2019-03-23T06:48:58.000Z,3.75
2019-03-23T06:51:29.293Z,4.06
2019-03-23T06:54:00.504Z,4.40
2019-03-23T06:56:31.717Z,4.73
2019-03-23T06:59:02.881Z,5.09
2019-03-23T07:01:34.114Z,5.45
2019-03-23T07:04:05.365Z,5.85
2019-03-23T07:06:36.664Z,6.20
2019-03-23T07:09:16.191Z,6.56
2019-03-23T07:11:41.907Z,6.86
2019-03-23T07:14:13.121Z,7.24
2019-03-23T07:16:44.328Z,7.70
2019-03-23T07:19:15.599Z,8.17
2019-03-23T07:21:46.846Z,8.61
2019-03-23T07:24:18.079Z,9.02
2019-03-23T07:26:49.315Z,9.41
2019-03-23T07:29:20.577Z,9.75
2019-03-23T07:31:51.803Z,10.10
2019-03-23T07:34:23.172Z,10.48
2019-03-23T07:36:54.384Z,10.93
2019-03-23T07:39:28.157Z,11.33
2019-03-23T07:41:58.483Z,11.70
2019-03-23T07:44:29.720Z,12.12
2019-03-23T07:47:00.934Z,12.52
2019-03-23T07:49:32.227Z,12.92
2019-03-23T07:52:03.503Z,13.07
2019-03-23T07:54:34.730Z,13.08
2019-03-23T07:57:05.945Z,13.19
2019-03-23T07:59:37.116Z,13.57
2019-03-23T08:02:08.279Z,13.85
2019-03-23T08:04:39.412Z,14.18
2019-03-23T08:07:10.670Z,14.71
2019-03-23T08:09:41.907Z,14.80
2019-03-23T08:12:13.152Z,15.21
2019-03-23T08:14:44.354Z,15.54
2019-03-23T08:17:15.595Z,15.68
2019-03-23T08:19:46.798Z,15.86
2019-03-23T08:22:17.959Z,15.81
2019-03-23T08:24:49.207Z,15.93
2019-03-23T08:27:20.475Z,16.34
2019-03-23T08:29:51.707Z,16.74
2019-03-23T08:32:22.945Z,16.92
2019-03-23T08:34:54.280Z,16.80
2019-03-23T08:37:25.424Z,17.17
2019-03-23T08:39:56.765Z,17.62
2019-03-23T08:42:28.040Z,17.74
2019-03-23T08:44:59.220Z,18.08
2019-03-23T08:47:30.441Z,18.42
2019-03-23T08:50:01.608Z,18.24
2019-03-23T08:52:32.819Z,18.73
2019-03-23T08:55:04.019Z,18.98
2019-03-23T08:57:35.198Z,19.52
2019-03-23T09:00:07.408Z,19.85
2019-03-23T09:02:38.637Z,20.07
2019-03-23T09:05:10.022Z,20.38
2019-03-23T09:07:41.232Z,20.21
2019-03-23T09:10:12.599Z,20.26
2019-03-23T09:12:43.793Z,20.64
2019-03-23T09:15:15.046Z,20.54
2019-03-23T09:17:46.309Z,20.52
2019-03-23T09:20:17.558Z,20.88
2019-03-23T09:22:48.833Z,21.38
2019-03-23T09:25:20.029Z,21.77
2019-03-23T09:27:51.237Z,22.10
2019-03-23T09:30:22.498Z,22.37
2019-03-23T09:32:53.771Z,22.32
2019-03-23T09:35:25.035Z,22.07
2019-03-23T09:37:56.358Z,22.27
2019-03-23T09:40:27.585Z,22.10
2019-03-23T09:42:58.737Z,22.39
2019-03-23T09:45:29.953Z,23.08
2019-03-23T09:48:01.179Z,22.25
2019-03-23T09:50:32.495Z,22.93
2019-03-23T09:53:03.722Z,23.23
2019-03-23T09:55:34.944Z,23.27
2019-03-23T09:58:06.220Z,23.40
2019-03-23T10:00:37.513Z,23.83
2019-03-23T10:03:08.744Z,24.89
2019-03-23T10:05:40.022Z,25.12
2019-03-23T10:08:11.291Z,24.99
2019-03-23T10:10:42.560Z,25.40
2019-03-23T10:13:13.824Z,25.78
2019-03-23T10:15:44.990Z,26.12
2019-03-23T10:18:16.253Z,26.58
2019-03-23T10:20:47.555Z,26.93
2019-03-23T10:23:18.836Z,27.21
2019-03-23T10:25:50.082Z,27.11
2019-03-23T10:28:21.362Z,27.39
2019-03-23T10:30:52.620Z,27.20
2019-03-23T10:33:23.841Z,27.24
2019-03-23T10:35:55.091Z,27.76
2019-03-23T10:38:26.311Z,27.48
2019-03-23T10:40:57.651Z,27.14
2019-03-23T10:43:28.948Z,27.43
2019-03-23T10:46:00.269Z,27.44
2019-03-23T10:48:31.575Z,27.90
2019-03-23T10:51:02.802Z,27.39
2019-03-23T10:53:34.052Z,27.17
2019-03-23T10:56:05.386Z,26.99
2019-03-23T10:58:36.649Z,26.91
2019-03-23T11:01:07.890Z,27.01
2019-03-23T11:03:39.131Z,26.90
2019-03-23T11:06:10.385Z,26.82
2019-03-23T11:08:41.655Z,27.06
2019-03-23T11:11:12.834Z,27.46
2019-03-23T11:13:43.986Z,27.70
2019-03-23T11:16:15.213Z,28.12
2019-03-23T11:18:46.495Z,27.99
2019-03-23T11:21:17.807Z,28.01
2019-03-23T11:23:48.984Z,28.00
2019-03-23T11:26:20.256Z,27.62
2019-03-23T11:28:51.527Z,27.16
2019-03-23T11:31:22.830Z,27.22
2019-03-23T11:33:54.084Z,27.78
2019-03-23T11:36:25.306Z,27.97
2019-03-23T11:38:56.576Z,28.16
2019-03-23T11:41:27.847Z,28.33
2019-03-23T11:43:59.069Z,28.46
2019-03-23T11:46:30.272Z,28.61
2019-03-23T11:49:01.639Z,29.02
2019-03-23T11:51:32.996Z,28.68
2019-03-23T11:54:04.330Z,28.96
2019-03-23T11:56:35.570Z,29.25
2019-03-23T11:59:06.815Z,30.07
2019-03-23T12:01:38.084Z,30.60
2019-03-23T12:04:09.367Z,31.21
2019-03-23T12:06:40.603Z,31.84
2019-03-23T12:09:11.984Z,32.44
2019-03-23T12:11:43.261Z,30.94
2019-03-23T12:14:14.545Z,30.88
2019-03-23T12:16:45.724Z,31.24
2019-03-23T12:19:16.864Z,31.12
2019-03-23T12:21:48.093Z,30.54
2019-03-23T12:24:19.357Z,30.85
2019-03-23T12:26:50.567Z,32.01
2019-03-23T12:29:21.851Z,32.89
2019-03-23T12:31:53.126Z,32.98
2019-03-23T12:34:24.372Z,33.29
2019-03-23T12:36:56.901Z,33.81
2019-03-23T12:39:28.166Z,33.50
2019-03-23T12:41:59.418Z,33.84
2019-03-23T12:44:30.716Z,34.65
2019-03-23T12:47:01.959Z,34.85
2019-03-23T12:49:33.198Z,34.94
2019-03-23T12:52:04.462Z,35.32
2019-03-23T12:54:35.815Z,34.91
2019-03-23T12:57:07.022Z,35.82
2019-03-23T12:59:38.369Z,36.04
2019-03-23T13:02:09.610Z,36.49
2019-03-23T13:04:40.876Z,37.07
2019-03-23T13:07:12.208Z,37.13
2019-03-23T13:09:43.453Z,37.02
2019-03-23T13:12:14.704Z,36.98
2019-03-23T13:14:46.027Z,35.91
2019-03-23T13:17:17.342Z,34.11
2019-03-23T13:19:48.709Z,33.55
2019-03-23T13:22:20.308Z,33.25
2019-03-23T13:24:51.558Z,32.67
2019-03-23T13:27:22.839Z,32.02
2019-03-23T13:29:53.953Z,30.88
2019-03-23T13:32:25.177Z,29.78
2019-03-23T13:34:56.399Z,28.88
2019-03-23T13:37:27.670Z,27.98
2019-03-23T13:39:58.973Z,27.65
2019-03-23T13:42:30.181Z,26.92
2019-03-23T13:45:01.452Z,26.39
2019-03-23T13:47:32.723Z,25.80
2019-03-23T13:50:04.124Z,25.46
2019-03-23T13:52:35.364Z,24.65
2019-03-23T13:55:07.410Z,24.28
2019-03-23T13:57:38.690Z,23.60
2019-03-23T14:00:11.595Z,23.19
2019-03-23T14:02:42.934Z,23.13
2019-03-23T14:05:16.327Z,23.05
2019-03-23T14:07:47.190Z,22.46
2019-03-23T14:10:18.459Z,22.27
2019-03-23T14:12:49.729Z,22.36
2019-03-23T14:15:20.969Z,22.15
2019-03-23T14:17:52.182Z,22.21
2019-03-23T14:20:23.473Z,22.22
2019-03-23T14:23:02.285Z,22.19
2019-03-23T14:25:27.807Z,22.64
2019-03-23T14:27:58.938Z,22.97
2019-03-23T14:30:30.126Z,23.26
2019-03-23T14:33:01.377Z,23.38
2019-03-23T14:35:32.871Z,23.46
2019-03-23T14:38:04.265Z,23.75
2019-03-23T14:40:35.528Z,24.08
2019-03-23T14:43:06.723Z,23.43
2019-03-23T14:45:38.012Z,24.38
2019-03-23T14:48:09.275Z,25.21
2019-03-23T14:50:42.583Z,25.90
2019-03-23T14:53:13.781Z,26.62
2019-03-23T14:55:47.122Z,27.36
2019-03-23T14:58:18.083Z,27.40
2019-03-23T15:00:49.341Z,27.51
2019-03-23T15:03:20.544Z,27.24
2019-03-23T15:05:51.777Z,26.72
2019-03-23T15:08:22.997Z,25.72
2019-03-23T15:10:54.236Z,25.07
2019-03-23T15:13:25.438Z,24.32
2019-03-23T15:15:56.587Z,23.38
2019-03-23T15:18:27.812Z,22.36
2019-03-23T15:20:59.049Z,21.71
2019-03-23T15:23:30.325Z,21.20
2019-03-23T15:26:01.588Z,20.84
2019-03-23T15:28:32.741Z,20.45
2019-03-23T15:31:04.017Z,20.15
2019-03-23T15:33:35.257Z,19.98
2019-03-23T15:36:06.527Z,19.75
2019-03-23T15:38:37.854Z,19.71
2019-03-23T15:41:09.076Z,19.57
2019-03-23T15:43:40.330Z,19.46
2019-03-23T15:46:11.600Z,19.39
2019-03-23T15:48:42.935Z,19.28
2019-03-23T15:51:14.217Z,19.10
2019-03-23T15:53:45.324Z,19.15
2019-03-23T15:56:16.549Z,19.11
2019-03-23T15:58:47.898Z,19.11
2019-03-23T16:01:19.146Z,19.09
2019-03-23T16:03:50.358Z,19.07
2019-03-23T16:06:21.870Z,18.79
2019-03-23T16:08:53.144Z,18.77
2019-03-23T16:11:24.715Z,18.70
2019-03-23T16:13:55.978Z,18.67
2019-03-23T16:16:27.244Z,18.59
2019-03-23T16:18:58.424Z,18.51
2019-03-23T16:21:29.707Z,18.42
2019-03-23T16:24:00.993Z,18.31
2019-03-23T16:26:32.201Z,18.25
2019-03-23T16:29:03.530Z,18.16
2019-03-23T16:31:34.758Z,18.08
2019-03-23T16:34:06.138Z,17.82
2019-03-23T16:36:37.303Z,17.42
2019-03-23T16:39:09.374Z,17.33
2019-03-23T16:41:40.529Z,17.18
2019-03-23T16:44:11.788Z,17.05
2019-03-23T16:46:42.983Z,16.79
2019-03-23T16:49:14.208Z,16.70
2019-03-23T16:51:45.383Z,16.60
2019-03-23T16:54:34.157Z,16.49
2019-03-23T16:57:05.505Z,16.32
2019-03-23T16:59:36.653Z,16.13
2019-03-23T17:02:07.946Z,15.99
2019-03-23T17:04:39.230Z,15.85
2019-03-23T17:07:10.589Z,15.71
2019-03-23T17:09:41.840Z,15.55
2019-03-23T17:12:13.140Z,15.48
2019-03-23T17:14:44.470Z,15.42
2019-03-23T17:17:15.734Z,15.26
2019-03-23T17:19:46.999Z,15.19
2019-03-23T17:22:18.314Z,15.17
2019-03-23T17:24:49.560Z,15.10
2019-03-23T17:27:20.906Z,14.92
2019-03-23T17:29:52.247Z,14.72
2019-03-23T17:32:23.485Z,14.30
2019-03-23T17:34:54.705Z,14.11
2019-03-23T17:37:25.972Z,13.88
2019-03-23T17:39:57.215Z,13.80
2019-03-23T17:42:28.369Z,13.60
2019-03-23T17:44:59.701Z,13.43
2019-03-23T17:47:30.898Z,13.21
2019-03-23T17:50:02.303Z,13.08
2019-03-23T17:52:33.565Z,12.96
2019-03-23T17:55:05.339Z,12.93
2019-03-23T17:57:36.663Z,12.68
2019-03-23T18:00:09.869Z,12.57
2019-03-23T18:02:41.380Z,12.34
2019-03-23T18:05:12.729Z,12.28
2019-03-23T18:07:43.987Z,12.10
2019-03-23T18:10:15.427Z,11.93
2019-03-23T18:12:46.662Z,11.66
2019-03-23T18:15:17.887Z,11.48
2019-03-23T18:17:51.201Z,11.37
2019-03-23T18:20:22.288Z,11.36
2019-03-23T18:22:53.598Z,11.31
2019-03-23T18:25:24.904Z,11.16
2019-03-23T18:27:56.317Z,10.99
2019-03-23T18:30:44.782Z,10.91
2019-03-23T18:33:16.117Z,10.85
2019-03-23T18:35:47.314Z,10.78
2019-03-23T18:38:18.635Z,10.76
2019-03-23T18:40:49.933Z,10.76
2019-03-23T18:43:27.517Z,10.81
2019-03-23T18:45:54.416Z,10.91
2019-03-23T18:48:25.739Z,10.84
2019-03-23T18:50:56.984Z,10.81
2019-03-23T18:53:28.298Z,10.88
2019-03-23T18:55:59.648Z,10.78
2019-03-23T18:58:30.898Z,10.76
2019-03-23T19:01:02.178Z,10.75
2019-03-23T19:03:33.403Z,10.97
2019-03-23T19:06:04.777Z,11.19
2019-03-23T19:08:36.146Z,11.25
2019-03-23T19:11:07.367Z,11.23
2019-03-23T19:13:38.638Z,11.19
2019-03-23T19:16:09.891Z,11.11
2019-03-23T19:18:41.491Z,11.10
2019-03-23T19:21:12.744Z,11.06
2019-03-23T19:23:43.940Z,11.06
2019-03-23T19:26:15.221Z,11.05
2019-03-23T19:28:46.454Z,11.02
2019-03-23T19:31:17.682Z,10.93
2019-03-23T19:33:48.898Z,10.82
2019-03-23T19:36:20.125Z,10.83
2019-03-23T19:38:51.348Z,10.81
2019-03-23T19:41:22.755Z,10.80
2019-03-23T19:43:54.007Z,10.78
2019-03-23T19:46:25.287Z,10.75
2019-03-23T19:48:56.594Z,10.73
2019-03-23T19:51:27.995Z,10.71
2019-03-23T19:53:59.139Z,10.71
2019-03-23T19:56:30.479Z,10.70
2019-03-23T19:59:01.809Z,10.66
2019-03-23T20:01:32.953Z,10.63
2019-03-23T20:04:04.243Z,10.59
2019-03-23T20:06:35.560Z,10.54
2019-03-23T20:09:09.270Z,10.46
2019-03-23T20:11:40.416Z,10.44
2019-03-23T20:14:11.721Z,10.38
2019-03-23T20:16:42.979Z,10.36
2019-03-23T20:19:14.081Z,10.29
2019-03-23T20:21:45.250Z,10.24
2019-03-23T20:24:16.553Z,10.13
2019-03-23T20:26:48.714Z,10.10
2019-03-23T20:29:20.020Z,9.83
2019-03-23T20:31:52.535Z,9.84
2019-03-23T20:34:24.079Z,9.87
2019-03-23T20:36:55.287Z,9.72
2019-03-23T20:39:26.595Z,9.66
2019-03-23T20:41:58.093Z,9.64
2019-03-23T20:44:29.870Z,9.60
2019-03-23T20:47:01.661Z,9.61
2019-03-23T20:49:34.145Z,9.56
2019-03-23T20:52:05.636Z,9.48
2019-03-23T20:54:36.954Z,9.48
2019-03-23T20:57:08.267Z,9.42
2019-03-23T20:59:39.518Z,9.28
2019-03-23T21:02:10.655Z,9.20
2019-03-23T21:04:41.882Z,9.16
2019-03-23T21:07:13.179Z,9.14
2019-03-23T21:09:44.384Z,9.07
2019-03-23T21:12:15.640Z,9.06
2019-03-23T21:14:46.907Z,8.99
2019-03-23T21:17:18.428Z,8.82
2019-03-23T21:19:49.627Z,8.33
2019-03-23T21:22:20.952Z,7.85
2019-03-23T21:24:52.292Z,7.60
2019-03-23T21:27:23.451Z,7.39
2019-03-23T21:29:54.874Z,7.29
2019-03-23T21:32:26.146Z,7.27
2019-03-23T21:34:57.377Z,7.21
2019-03-23T21:37:28.742Z,7.05
2019-03-23T21:40:00.340Z,6.93
2019-03-23T21:42:31.783Z,6.87
2019-03-23T21:45:03.000Z,6.73
2019-03-23T21:47:34.193Z,6.62
2019-03-23T21:50:06.047Z,6.61
2019-03-23T21:52:37.406Z,6.77
2019-03-23T21:55:09.631Z,6.82
2019-03-23T21:57:40.891Z,6.90
2019-03-23T22:00:12.257Z,6.97
2019-03-23T22:02:43.568Z,7.09
2019-03-23T22:05:14.986Z,7.15
2019-03-23T22:07:46.208Z,7.18
2019-03-23T22:10:17.545Z,7.15
2019-03-23T22:12:48.802Z,7.15
2019-03-23T22:15:20.098Z,7.08
2019-03-23T22:17:51.332Z,6.99
2019-03-23T22:20:22.572Z,7.11
2019-03-23T22:22:53.850Z,7.28
2019-03-23T22:25:25.177Z,7.39
2019-03-23T22:27:56.441Z,7.47
2019-03-23T22:30:27.791Z,7.52
2019-03-23T22:32:59.017Z,7.37
2019-03-23T22:35:30.326Z,7.16
2019-03-23T22:38:01.583Z,7.07
2019-03-23T22:40:32.845Z,6.80
2019-03-23T22:43:04.168Z,6.65
2019-03-23T22:45:35.943Z,6.57
2019-03-23T22:48:07.184Z,6.51
2019-03-23T22:50:38.434Z,6.65
2019-03-23T22:53:09.702Z,6.82
2019-03-23T22:55:40.907Z,6.94
2019-03-23T22:58:12.136Z,7.05
2019-03-23T23:00:47.809Z,7.07
2019-03-23T23:03:18.948Z,7.09
2019-03-23T23:05:50.266Z,7.09
2019-03-23T23:08:21.407Z,7.08
2019-03-23T23:10:52.513Z,7.06
2019-03-23T23:13:23.759Z,7.08
2019-03-23T23:15:54.901Z,7.07
2019-03-23T23:18:26.178Z,7.14
2019-03-23T23:20:57.362Z,7.09
2019-03-23T23:23:28.644Z,7.07
2019-03-23T23:25:59.782Z,7.05
2019-03-23T23:28:30.945Z,6.99
2019-03-23T23:31:02.208Z,6.91
2019-03-23T23:33:33.460Z,6.87
2019-03-23T23:36:05.006Z,6.85
2019-03-23T23:38:36.226Z,6.83
2019-03-23T23:41:07.436Z,6.80
2019-03-23T23:43:38.629Z,6.82
2019-03-23T23:46:09.852Z,6.75
2019-03-23T23:48:50.926Z,6.72
2019-03-23T23:51:14.256Z,6.71
2019-03-23T23:53:45.532Z,6.64
2019-03-23T23:56:16.730Z,6.54
2019-03-23T23:58:47.937Z,6.38
